Wilkes Barre Township, Pennsylvania
Current Conditions -  °F | °C
As of 7:54 AM on Monday 22 Dec 2014 (Local Time) from KAVP Reporting Station
Overcast Overcast  
Wind Chill: 27°   Ceiling: 1700
Heat Index: 32°   Visibility: 10mi
Dew Point: 25°   Wind: 5mph
Humidity: 75%   Direction: NA
Pressure: 30.27"   Gusts: NA
Location:  41.1921°N, 75.9213°W
Report Text: KAVP 221254Z AUTO VRB04KT 10SM OVC017 00/M04 A3027 RMK AO2 SLP259 T00001039
Loading
Personal Weather Stations






























Interactive Weather Map New forecast layout! Learn more

10-Day Weather Forecast

Advertisements
Track Severe Weather on mobile